Stenlose, Denmark
Current Conditions -  °F | °C
As of 6:20 AM on Wednesday 26 Nov 2014 (Local Time) from EKRK Reporting Station
Broken Clouds Broken Clouds  
Wind Chill: 41°   Ceiling: 2000
Heat Index: 41°   Visibility: 6mi
Dew Point: 39°   Wind: 3mph
Humidity: 93%   Direction: 60°ENE
Pressure: 30.27"   Gusts: NA
Location:  55.77°N, 12.2°E
Report Text: EKRK 260520Z AUTO 06003KT 9999NDV BKN020/// 05/04 Q1025
Loading
Personal Weather Stations






























Interactive Weather Map New forecast layout! Learn more

10-Day Weather Forecast

Advertisements
Track Severe Weather on mobile